sensor_id;sensor_type;location;lat;lon;timestamp;pressure;altitude;pressure_sealevel;temperature;humidity
76730;BME280;65653;53.106;18.046;2023-03-01T00:01:08;102349.14;;;-3.23;76.33
76730;BME280;65653;53.106;18.046;2023-03-01T00:03:35;102348.20;;;-3.22;76.44
76730;BME280;65653;53.106;18.046;2023-03-01T00:06:02;102353.78;;;-3.22;76.58
76730;BME280;65653;53.106;18.046;2023-03-01T00:08:33;102349.52;;;-3.23;76.76
76730;BME280;65653;53.106;18.046;2023-03-01T00:11:21;102352.47;;;-3.28;76.87
76730;BME280;65653;53.106;18.046;2023-03-01T00:13:51;102350.05;;;-3.34;77.09
76730;BME280;65653;53.106;18.046;2023-03-01T00:16:26;102350.22;;;-3.37;77.30
76730;BME280;65653;53.106;18.046;2023-03-01T00:18:57;102349.63;;;-3.39;77.25
76730;BME280;65653;53.106;18.046;2023-03-01T00:21:25;102347.73;;;-3.41;77.25
76730;BME280;65653;53.106;18.046;2023-03-01T00:23:53;102347.61;;;-3.42;77.33
76730;BME280;65653;53.106;18.046;2023-03-01T00:26:22;102343.63;;;-3.46;77.20
76730;BME280;65653;53.106;18.046;2023-03-01T00:28:49;102329.56;;;-3.50;77.55
76730;BME280;65653;53.106;18.046;2023-03-01T00:31:18;102324.55;;;-3.51;77.84
76730;BME280;65653;53.106;18.046;2023-03-01T00:33:46;102323.80;;;-3.50;77.56
76730;BME280;65653;53.106;18.046;2023-03-01T00:36:14;102321.58;;;-3.49;77.61
76730;BME280;65653;53.106;18.046;2023-03-01T00:38:45;102317.50;;;-3.47;77.63
76730;BME280;65653;53.106;18.046;2023-03-01T00:41:15;102317.73;;;-3.48;77.89
76730;BME280;65653;53.106;18.046;2023-03-01T00:43:44;102314.57;;;-3.50;77.77
76730;BME280;65653;53.106;18.046;2023-03-01T00:46:13;102319.50;;;-3.54;77.83
76730;BME280;65653;53.106;18.046;2023-03-01T00:48:41;102320.36;;;-3.57;77.89
76730;BME280;65653;53.106;18.046;2023-03-01T00:51:14;102318.70;;;-3.56;77.98
76730;BME280;65653;53.106;18.046;2023-03-01T00:53:45;102316.59;;;-3.57;77.39
76730;BME280;65653;53.106;18.046;2023-03-01T00:56:13;102319.21;;;-3.60;77.75
76730;BME280;65653;53.106;18.046;2023-03-01T00:58:41;102315.67;;;-3.61;78.38
76730;BME280;65653;53.106;18.046;2023-03-01T01:01:13;102307.94;;;-3.61;78.57
76730;BME280;65653;53.106;18.046;2023-03-01T01:03:45;102306.16;;;-3.62;78.64
76730;BME280;65653;53.106;18.046;2023-03-01T01:06:20;102300.60;;;-3.63;78.35
76730;BME280;65653;53.106;18.046;2023-03-01T01:08:48;102301.25;;;-3.58;78.50
76730;BME280;65653;53.106;18.046;2023-03-01T01:11:15;102302.77;;;-3.55;78.45
76730;BME280;65653;53.106;18.046;2023-03-01T01:13:45;102300.08;;;-3.56;78.36
76730;BME280;65653;53.106;18.046;2023-03-01T01:16:13;102292.38;;;-3.61;78.29
76730;BME280;65653;53.106;18.046;2023-03-01T01:18:40;102288.17;;;-3.63;78.48
76730;BME280;65653;53.106;18.046;2023-03-01T01:21:12;102286.83;;;-3.61;78.33
76730;BME280;65653;53.106;18.046;2023-03-01T01:23:40;102276.04;;;-3.59;78.15
76730;BME280;65653;53.106;18.046;2023-03-01T01:26:20;102270.88;;;-3.56;78.04
76730;BME280;65653;53.106;18.046;2023-03-01T01:28:47;102273.55;;;-3.56;77.77
76730;BME280;65653;53.106;18.046;2023-03-01T01:31:14;102269.95;;;-3.60;77.58
76730;BME280;65653;53.106;18.046;2023-03-01T01:33:43;102263.10;;;-3.64;77.73
76730;BME280;65653;53.106;18.046;2023-03-01T01:36:10;102263.80;;;-3.63;78.25
76730;BME280;65653;53.106;18.046;2023-03-01T01:38:38;102263.87;;;-3.61;77.94
76730;BME280;65653;53.106;18.046;2023-03-01T01:41:06;102259.77;;;-3.58;77.67
76730;BME280;65653;53.106;18.046;2023-03-01T01:43:38;102264.50;;;-3.59;77.54
76730;BME280;65653;53.106;18.046;2023-03-01T01:46:31;102258.86;;;-3.62;77.56
76730;BME280;65653;53.106;18.046;2023-03-01T01:49:06;102247.16;;;-3.66;77.76
76730;BME280;65653;53.106;18.046;2023-03-01T01:51:39;102244.02;;;-3.64;77.75
76730;BME280;65653;53.106;18.046;2023-03-01T01:54:14;102245.27;;;-3.61;77.58
76730;BME280;65653;53.106;18.046;2023-03-01T01:56:47;102243.10;;;-3.53;77.60
76730;BME280;65653;53.106;18.046;2023-03-01T01:59:15;102240.98;;;-3.47;77.14
76730;BME280;65653;53.106;18.046;2023-03-01T02:01:43;102240.52;;;-3.49;76.75
76730;BME280;65653;53.106;18.046;2023-03-01T02:04:10;102242.61;;;-3.51;76.97
76730;BME280;65653;53.106;18.046;2023-03-01T02:06:43;102238.73;;;-3.53;77.10
76730;BME280;65653;53.106;18.046;2023-03-01T02:09:14;102238.11;;;-3.55;77.12
76730;BME280;65653;53.106;18.046;2023-03-01T02:11:43;102242.67;;;-3.52;77.31
76730;BME280;65653;53.106;18.046;2023-03-01T02:14:11;102236.95;;;-3.50;77.00
76730;BME280;65653;53.106;18.046;2023-03-01T02:16:38;102238.82;;;-3.47;76.93
76730;BME280;65653;53.106;18.046;2023-03-01T02:19:08;102241.02;;;-3.45;76.70
76730;BME280;65653;53.106;18.046;2023-03-01T02:21:50;102249.14;;;-3.44;76.93
76730;BME280;65653;53.106;18.046;2023-03-01T02:24:44;102248.44;;;-3.48;76.67
76730;BME280;65653;53.106;18.046;2023-03-01T02:27:17;102243.06;;;-3.53;76.90
76730;BME280;65653;53.106;18.046;2023-03-01T02:29:48;102243.10;;;-3.53;77.12
76730;BME280;65653;53.106;18.046;2023-03-01T02:32:16;102238.97;;;-3.50;77.12
76730;BME280;65653;53.106;18.046;2023-03-01T02:34:55;102234.92;;;-3.46;76.82
76730;BME280;65653;53.106;18.046;2023-03-01T02:37:22;102231.88;;;-3.46;76.57
76730;BME280;65653;53.106;18.046;2023-03-01T02:39:58;102227.64;;;-3.48;76.73
76730;BME280;65653;53.106;18.046;2023-03-01T02:42:36;102228.83;;;-3.49;77.11
76730;BME280;65653;53.106;18.046;2023-03-01T02:45:07;102223.39;;;-3.49;77.01
76730;BME280;65653;53.106;18.046;2023-03-01T02:47:34;102221.41;;;-3.49;77.14
76730;BME280;65653;53.106;18.046;2023-03-01T02:50:00;102220.94;;;-3.47;77.06
76730;BME280;65653;53.106;18.046;2023-03-01T02:52:52;102220.92;;;-3.44;77.13
76730;BME280;65653;53.106;18.046;2023-03-01T02:55:22;102217.64;;;-3.43;77.04
76730;BME280;65653;53.106;18.046;2023-03-01T02:57:49;102217.84;;;-3.43;76.94
76730;BME280;65653;53.106;18.046;2023-03-01T03:00:21;102218.15;;;-3.46;77.05
76730;BME280;65653;53.106;18.046;2023-03-01T03:02:51;102216.30;;;-3.48;77.23
76730;BME280;65653;53.106;18.046;2023-03-01T03:05:22;102212.10;;;-3.47;77.28
76730;BME280;65653;53.106;18.046;2023-03-01T03:07:50;102214.38;;;-3.46;77.18
76730;BME280;65653;53.106;18.046;2023-03-01T03:10:22;102215.91;;;-3.48;76.94
76730;BME280;65653;53.106;18.046;2023-03-01T03:12:53;102210.17;;;-3.49;77.17
76730;BME280;65653;53.106;18.046;2023-03-01T03:15:20;102212.33;;;-3.52;77.14
76730;BME280;65653;53.106;18.046;2023-03-01T03:17:48;102212.88;;;-3.55;77.15
76730;BME280;65653;53.106;18.046;2023-03-01T03:20:18;102215.70;;;-3.58;77.34
76730;BME280;65653;53.106;18.046;2023-03-01T03:22:49;102210.55;;;-3.59;77.30
76730;BME280;65653;53.106;18.046;2023-03-01T03:25:17;102204.68;;;-3.57;77.47
76730;BME280;65653;53.106;18.046;2023-03-01T03:27:46;102204.06;;;-3.56;77.40
76730;BME280;65653;53.106;18.046;2023-03-01T03:30:18;102195.06;;;-3.56;77.65
76730;BME280;65653;53.106;18.046;2023-03-01T03:32:47;102196.27;;;-3.59;77.78
76730;BME280;65653;53.106;18.046;2023-03-01T03:35:31;102192.34;;;-3.63;77.83
76730;BME280;65653;53.106;18.046;2023-03-01T03:38:01;102185.48;;;-3.64;78.13
76730;BME280;65653;53.106;18.046;2023-03-01T03:40:30;102183.84;;;-3.60;77.87
76730;BME280;65653;53.106;18.046;2023-03-01T03:42:57;102178.80;;;-3.56;77.90
76730;BME280;65653;53.106;18.046;2023-03-01T03:45:24;102176.97;;;-3.56;77.95
76730;BME280;65653;53.106;18.046;2023-03-01T03:47:50;102177.41;;;-3.57;77.93
76730;BME280;65653;53.106;18.046;2023-03-01T03:50:17;102171.69;;;-3.58;78.10
76730;BME280;65653;53.106;18.046;2023-03-01T03:52:44;102168.54;;;-3.57;77.97
76730;BME280;65653;53.106;18.046;2023-03-01T03:55:11;102166.63;;;-3.55;78.02
76730;BME280;65653;53.106;18.046;2023-03-01T03:57:40;102165.32;;;-3.54;77.64
76730;BME280;65653;53.106;18.046;2023-03-01T04:00:10;102168.30;;;-3.55;77.78
76730;BME280;65653;53.106;18.046;2023-03-01T04:02:41;102170.45;;;-3.59;77.80
76730;BME280;65653;53.106;18.046;2023-03-01T04:05:09;102168.79;;;-3.62;78.08
76730;BME280;65653;53.106;18.046;2023-03-01T04:07:37;102149.18;;;-3.63;78.11
76730;BME280;65653;53.106;18.046;2023-03-01T04:10:06;102147.84;;;-3.61;78.16
76730;BME280;65653;53.106;18.046;2023-03-01T04:12:33;102148.27;;;-3.59;78.07
76730;BME280;65653;53.106;18.046;2023-03-01T04:15:02;102156.35;;;-3.62;77.74
76730;BME280;65653;53.106;18.046;2023-03-01T04:17:40;102156.47;;;-3.67;77.75
76730;BME280;65653;53.106;18.046;2023-03-01T04:20:18;102155.80;;;-3.72;77.88
76730;BME280;65653;53.106;18.046;2023-03-01T04:23:04;102156.34;;;-3.76;78.19
76730;BME280;65653;53.106;18.046;2023-03-01T04:25:46;102158.79;;;-3.74;78.39
76730;BME280;65653;53.106;18.046;2023-03-01T04:28:15;102160.34;;;-3.69;78.34
76730;BME280;65653;53.106;18.046;2023-03-01T04:30:42;102161.08;;;-3.66;78.39
76730;BME280;65653;53.106;18.046;2023-03-01T04:33:10;102161.98;;;-3.66;78.28
76730;BME280;65653;53.106;18.046;2023-03-01T04:35:37;102158.77;;;-3.67;78.52
76730;BME280;65653;53.106;18.046;2023-03-01T04:38:04;102150.58;;;-3.69;78.74
76730;BME280;65653;53.106;18.046;2023-03-01T04:40:32;102141.13;;;-3.71;78.84
76730;BME280;65653;53.106;18.046;2023-03-01T04:42:58;102140.13;;;-3.69;78.90
76730;BME280;65653;53.106;18.046;2023-03-01T04:45:25;102139.77;;;-3.66;78.78
76730;BME280;65653;53.106;18.046;2023-03-01T04:47:51;102136.99;;;-3.65;78.81
76730;BME280;65653;53.106;18.046;2023-03-01T04:50:21;102139.19;;;-3.65;78.78
76730;BME280;65653;53.106;18.046;2023-03-01T04:52:49;102137.45;;;-3.66;78.95
76730;BME280;65653;53.106;18.046;2023-03-01T04:55:16;102136.48;;;-3.68;79.29
76730;BME280;65653;53.106;18.046;2023-03-01T04:57:42;102132.83;;;-3.68;79.40
76730;BME280;65653;53.106;18.046;2023-03-01T05:00:12;102131.91;;;-3.64;79.62
76730;BME280;65653;53.106;18.046;2023-03-01T05:02:50;102128.18;;;-3.62;79.59
76730;BME280;65653;53.106;18.046;2023-03-01T05:07:47;102130.54;;;-3.62;79.95
76730;BME280;65653;53.106;18.046;2023-03-01T05:10:14;102128.10;;;-3.64;80.08
76730;BME280;65653;53.106;18.046;2023-03-01T05:12:41;102131.17;;;-3.60;80.35
76730;BME280;65653;53.106;18.046;2023-03-01T05:15:07;102132.63;;;-3.57;79.93
76730;BME280;65653;53.106;18.046;2023-03-01T05:17:34;102136.89;;;-3.55;79.95
76730;BME280;65653;53.106;18.046;2023-03-01T05:20:00;102138.40;;;-3.57;80.24
76730;BME280;65653;53.106;18.046;2023-03-01T05:22:27;102141.44;;;-3.60;80.21
76730;BME280;65653;53.106;18.046;2023-03-01T05:24:54;102141.07;;;-3.63;80.49
76730;BME280;65653;53.106;18.046;2023-03-01T05:27:21;102140.31;;;-3.66;80.76
76730;BME280;65653;53.106;18.046;2023-03-01T05:29:48;102136.34;;;-3.66;80.69
76730;BME280;65653;53.106;18.046;2023-03-01T05:32:14;102135.58;;;-3.65;80.63
76730;BME280;65653;53.106;18.046;2023-03-01T05:34:42;102131.68;;;-3.67;80.70
76730;BME280;65653;53.106;18.046;2023-03-01T05:37:08;102129.16;;;-3.70;80.85
76730;BME280;65653;53.106;18.046;2023-03-01T05:39:36;102130.38;;;-3.72;81.09
76730;BME280;65653;53.106;18.046;2023-03-01T05:42:03;102132.65;;;-3.71;81.32
76730;BME280;65653;53.106;18.046;2023-03-01T05:44:29;102136.98;;;-3.68;81.03
76730;BME280;65653;53.106;18.046;2023-03-01T05:46:56;102133.48;;;-3.66;80.63
76730;BME280;65653;53.106;18.046;2023-03-01T05:49:23;102132.77;;;-3.67;80.86
76730;BME280;65653;53.106;18.046;2023-03-01T05:51:53;102131.71;;;-3.67;80.96
76730;BME280;65653;53.106;18.046;2023-03-01T05:54:21;102129.74;;;-3.67;81.13
76730;BME280;65653;53.106;18.046;2023-03-01T05:56:48;102131.09;;;-3.65;80.92
76730;BME280;65653;53.106;18.046;2023-03-01T05:59:14;102136.02;;;-3.60;80.89
76730;BME280;65653;53.106;18.046;2023-03-01T06:01:43;102135.39;;;-3.55;80.48
76730;BME280;65653;53.106;18.046;2023-03-01T06:04:09;102137.75;;;-3.51;80.07
76730;BME280;65653;53.106;18.046;2023-03-01T06:06:36;102139.01;;;-3.48;80.29
76730;BME280;65653;53.106;18.046;2023-03-01T06:09:05;102140.98;;;-3.45;80.31
76730;BME280;65653;53.106;18.046;2023-03-01T06:11:34;102139.54;;;-3.41;80.09
76730;BME280;65653;53.106;18.046;2023-03-01T06:14:01;102137.80;;;-3.36;79.88
76730;BME280;65653;53.106;18.046;2023-03-01T06:16:28;102136.42;;;-3.27;79.66
76730;BME280;65653;53.106;18.046;2023-03-01T06:18:55;102136.67;;;-3.15;79.49
76730;BME280;65653;53.106;18.046;2023-03-01T06:21:21;102133.91;;;-3.04;79.19
76730;BME280;65653;53.106;18.046;2023-03-01T06:23:47;102140.32;;;-2.96;78.90
76730;BME280;65653;53.106;18.046;2023-03-01T06:26:14;102142.17;;;-2.91;78.69
76730;BME280;65653;53.106;18.046;2023-03-01T06:28:40;102142.38;;;-2.84;78.55
76730;BME280;65653;53.106;18.046;2023-03-01T06:31:07;102143.83;;;-2.78;78.65
76730;BME280;65653;53.106;18.046;2023-03-01T06:33:34;102144.14;;;-2.71;78.37
76730;BME280;65653;53.106;18.046;2023-03-01T06:36:02;102147.26;;;-2.59;77.99
76730;BME280;65653;53.106;18.046;2023-03-01T06:38:29;102149.62;;;-2.43;77.66
76730;BME280;65653;53.106;18.046;2023-03-01T06:40:55;102149.86;;;-2.29;77.11
76730;BME280;65653;53.106;18.046;2023-03-01T06:43:23;102149.83;;;-2.16;76.74
76730;BME280;65653;53.106;18.046;2023-03-01T06:45:50;102147.19;;;-2.08;76.25
76730;BME280;65653;53.106;18.046;2023-03-01T06:48:17;102151.85;;;-2.04;76.10
76730;BME280;65653;53.106;18.046;2023-03-01T06:50:43;102154.47;;;-2.03;75.95
76730;BME280;65653;53.106;18.046;2023-03-01T06:53:10;102157.61;;;-2.00;75.99
76730;BME280;65653;53.106;18.046;2023-03-01T06:55:36;102156.86;;;-1.94;75.77
76730;BME280;65653;53.106;18.046;2023-03-01T06:58:03;102151.38;;;-1.90;75.62
76730;BME280;65653;53.106;18.046;2023-03-01T07:00:30;102145.85;;;-1.91;75.42
76730;BME280;65653;53.106;18.046;2023-03-01T07:03:01;102142.27;;;-1.92;75.47
76730;BME280;65653;53.106;18.046;2023-03-01T07:05:29;102137.29;;;-1.91;75.67
76730;BME280;65653;53.106;18.046;2023-03-01T07:07:56;102136.21;;;-1.85;75.67
76730;BME280;65653;53.106;18.046;2023-03-01T07:10:23;102135.81;;;-1.75;75.34
76730;BME280;65653;53.106;18.046;2023-03-01T07:12:49;102135.81;;;-1.64;75.08
76730;BME280;65653;53.106;18.046;2023-03-01T07:15:16;102131.48;;;-1.55;75.01
76730;BME280;65653;53.106;18.046;2023-03-01T07:17:42;102128.75;;;-1.49;74.57
76730;BME280;65653;53.106;18.046;2023-03-01T07:20:11;102133.89;;;-1.41;74.54
76730;BME280;65653;53.106;18.046;2023-03-01T07:22:39;102129.55;;;-1.29;74.47
76730;BME280;65653;53.106;18.046;2023-03-01T07:25:06;102123.73;;;-1.15;74.04
76730;BME280;65653;53.106;18.046;2023-03-01T07:27:33;102116.59;;;-1.00;73.63
76730;BME280;65653;53.106;18.046;2023-03-01T07:29:59;102110.95;;;-0.88;73.22
76730;BME280;65653;53.106;18.046;2023-03-01T07:32:26;102107.80;;;-0.79;72.72
76730;BME280;65653;53.106;18.046;2023-03-01T07:34:52;102108.25;;;-0.66;72.75
76730;BME280;65653;53.106;18.046;2023-03-01T07:37:19;102110.52;;;-0.56;72.33
76730;BME280;65653;53.106;18.046;2023-03-01T07:39:45;102114.15;;;-0.46;72.23
76730;BME280;65653;53.106;18.046;2023-03-01T07:42:12;102112.96;;;-0.31;71.88
76730;BME280;65653;53.106;18.046;2023-03-01T07:44:38;102104.47;;;-0.15;71.54
76730;BME280;65653;53.106;18.046;2023-03-01T07:47:05;102105.39;;;-0.02;71.26
76730;BME280;65653;53.106;18.046;2023-03-01T07:49:31;102103.66;;;0.05;70.90
76730;BME280;65653;53.106;18.046;2023-03-01T07:51:58;102102.14;;;0.11;70.65
76730;BME280;65653;53.106;18.046;2023-03-01T07:54:24;102105.31;;;0.20;70.47
76730;BME280;65653;53.106;18.046;2023-03-01T07:56:52;102105.33;;;0.36;70.52
76730;BME280;65653;53.106;18.046;2023-03-01T07:59:21;102100.02;;;0.57;70.16
76730;BME280;65653;53.106;18.046;2023-03-01T08:01:47;102096.77;;;0.74;69.72
76730;BME280;65653;53.106;18.046;2023-03-01T08:04:14;102096.97;;;0.92;69.42
76730;BME280;65653;53.106;18.046;2023-03-01T08:06:41;102089.22;;;1.23;68.39
76730;BME280;65653;53.106;18.046;2023-03-01T08:09:07;102087.33;;;1.63;66.93
76730;BME280;65653;53.106;18.046;2023-03-01T08:11:34;102080.32;;;2.14;65.49
76730;BME280;65653;53.106;18.046;2023-03-01T08:14:01;102082.30;;;2.60;64.45
76730;BME280;65653;53.106;18.046;2023-03-01T08:16:27;102083.76;;;2.94;63.98
76730;BME280;65653;53.106;18.046;2023-03-01T08:18:54;102084.01;;;3.25;63.03
76730;BME280;65653;53.106;18.046;2023-03-01T08:21:22;102091.36;;;3.55;62.72
76730;BME280;65653;53.106;18.046;2023-03-01T08:23:49;102086.08;;;3.85;62.50
76730;BME280;65653;53.106;18.046;2023-03-01T08:26:20;102091.06;;;4.01;62.14
76730;BME280;65653;53.106;18.046;2023-03-01T08:28:49;102086.73;;;4.33;62.19
76730;BME280;65653;53.106;18.046;2023-03-01T08:31:22;102081.58;;;4.85;61.52
76730;BME280;65653;53.106;18.046;2023-03-01T08:33:51;102084.52;;;5.23;59.64
76730;BME280;65653;53.106;18.046;2023-03-01T08:36:29;102088.08;;;5.46;58.02
76730;BME280;65653;53.106;18.046;2023-03-01T08:38:56;102086.09;;;5.82;59.59
76730;BME280;65653;53.106;18.046;2023-03-01T08:41:23;102088.73;;;6.10;58.65
76730;BME280;65653;53.106;18.046;2023-03-01T08:43:50;102085.35;;;6.59;57.21
76730;BME280;65653;53.106;18.046;2023-03-01T08:46:16;102085.86;;;7.49;55.81
76730;BME280;65653;53.106;18.046;2023-03-01T08:48:43;102079.52;;;8.38;53.37
76730;BME280;65653;53.106;18.046;2023-03-01T08:51:15;102071.84;;;9.09;52.10
76730;BME280;65653;53.106;18.046;2023-03-01T08:53:43;102070.75;;;9.53;50.53
76730;BME280;65653;53.106;18.046;2023-03-01T08:56:10;102067.32;;;9.81;49.16
76730;BME280;65653;53.106;18.046;2023-03-01T08:58:37;102067.10;;;10.06;48.10
76730;BME280;65653;53.106;18.046;2023-03-01T09:01:08;102070.33;;;10.27;47.42
76730;BME280;65653;53.106;18.046;2023-03-01T09:03:38;102076.69;;;10.28;46.79
76730;BME280;65653;53.106;18.046;2023-03-01T09:06:06;102072.54;;;10.51;46.86
76730;BME280;65653;53.106;18.046;2023-03-01T09:08:38;102072.89;;;10.55;46.84
76730;BME280;65653;53.106;18.046;2023-03-01T09:11:07;102069.98;;;11.17;46.86
76730;BME280;65653;53.106;18.046;2023-03-01T09:13:35;102073.60;;;11.65;44.55
76730;BME280;65653;53.106;18.046;2023-03-01T09:16:04;102078.23;;;11.87;44.11
76730;BME280;65653;53.106;18.046;2023-03-01T09:18:32;102077.41;;;12.34;44.19
76730;BME280;65653;53.106;18.046;2023-03-01T09:21:03;102074.39;;;12.70;43.78
76730;BME280;65653;53.106;18.046;2023-03-01T09:23:38;102071.45;;;12.96;42.29
76730;BME280;65653;53.106;18.046;2023-03-01T09:26:10;102068.83;;;13.35;41.61
76730;BME280;65653;53.106;18.046;2023-03-01T09:28:38;102067.23;;;13.43;40.05
76730;BME280;65653;53.106;18.046;2023-03-01T09:31:05;102062.66;;;13.53;40.85
76730;BME280;65653;53.106;18.046;2023-03-01T09:33:32;102062.19;;;13.36;40.76
76730;BME280;65653;53.106;18.046;2023-03-01T09:36:01;102062.61;;;13.41;41.24
76730;BME280;65653;53.106;18.046;2023-03-01T09:38:29;102064.12;;;13.56;41.61
76730;BME280;65653;53.106;18.046;2023-03-01T09:40:56;102057.63;;;14.15;41.54
76730;BME280;65653;53.106;18.046;2023-03-01T09:46:07;102050.02;;;14.67;39.13
76730;BME280;65653;53.106;18.046;2023-03-01T09:48:46;102048.26;;;14.09;39.32
76730;BME280;65653;53.106;18.046;2023-03-01T09:51:19;102043.17;;;13.86;39.79
76730;BME280;65653;53.106;18.046;2023-03-01T09:53:48;102041.59;;;13.87;40.22
76730;BME280;65653;53.106;18.046;2023-03-01T09:56:27;102041.54;;;14.16;40.03
76730;BME280;65653;53.106;18.046;2023-03-01T09:59:23;102043.88;;;14.85;39.39
76730;BME280;65653;53.106;18.046;2023-03-01T10:02:19;102044.25;;;15.90;38.61
76730;BME280;65653;53.106;18.046;2023-03-01T10:04:54;102042.36;;;16.19;36.32
76730;BME280;65653;53.106;18.046;2023-03-01T10:09:58;102037.09;;;16.28;36.08
76730;BME280;65653;53.106;18.046;2023-03-01T10:12:32;102029.50;;;16.49;36.06
76730;BME280;65653;53.106;18.046;2023-03-01T10:15:53;102026.11;;;17.36;34.69
76730;BME280;65653;53.106;18.046;2023-03-01T10:17:58;102019.37;;;17.97;33.31
76730;BME280;65653;53.106;18.046;2023-03-01T10:20:36;102017.06;;;18.02;33.26
76730;BME280;65653;53.106;18.046;2023-03-01T10:23:09;102012.47;;;18.33;32.67
76730;BME280;65653;53.106;18.046;2023-03-01T10:25:47;102001.34;;;18.72;32.22
76730;BME280;65653;53.106;18.046;2023-03-01T10:28:31;101996.81;;;19.08;31.20
76730;BME280;65653;53.106;18.046;2023-03-01T10:31:05;101995.09;;;19.25;31.30
76730;BME280;65653;53.106;18.046;2023-03-01T10:33:38;101994.92;;;19.71;30.29
76730;BME280;65653;53.106;18.046;2023-03-01T10:36:05;101989.86;;;19.75;30.72
76730;BME280;65653;53.106;18.046;2023-03-01T10:38:48;101985.41;;;20.09;30.17
76730;BME280;65653;53.106;18.046;2023-03-01T10:41:15;101983.42;;;20.33;29.55
76730;BME280;65653;53.106;18.046;2023-03-01T10:43:51;101982.43;;;19.50;29.47
76730;BME280;65653;53.106;18.046;2023-03-01T10:46:37;101980.73;;;18.80;30.68
76730;BME280;65653;53.106;18.046;2023-03-01T10:49:22;101978.20;;;19.62;30.09
76730;BME280;65653;53.106;18.046;2023-03-01T10:51:52;101981.20;;;19.72;29.45
76730;BME280;65653;53.106;18.046;2023-03-01T10:54:28;101974.29;;;19.45;29.73
76730;BME280;65653;53.106;18.046;2023-03-01T10:56:58;101969.75;;;19.75;29.84
76730;BME280;65653;53.106;18.046;2023-03-01T11:02:28;101954.29;;;20.35;29.15
76730;BME280;65653;53.106;18.046;2023-03-01T11:07:53;101941.48;;;20.76;28.89
76730;BME280;65653;53.106;18.046;2023-03-01T11:10:30;101943.55;;;21.01;28.12
76730;BME280;65653;53.106;18.046;2023-03-01T11:13:14;101942.77;;;20.56;28.22
76730;BME280;65653;53.106;18.046;2023-03-01T11:15:43;101945.92;;;21.08;28.02
76730;BME280;65653;53.106;18.046;2023-03-01T11:18:21;101942.25;;;21.55;27.34
76730;BME280;65653;53.106;18.046;2023-03-01T11:20:49;101935.63;;;22.28;26.53
76730;BME280;65653;53.106;18.046;2023-03-01T11:23:19;101936.72;;;22.00;26.37
76730;BME280;65653;53.106;18.046;2023-03-01T11:25:54;101928.30;;;22.43;25.88
76730;BME280;65653;53.106;18.046;2023-03-01T11:28:22;101924.64;;;22.41;25.85
76730;BME280;65653;53.106;18.046;2023-03-01T11:31:02;101921.19;;;22.73;25.44
76730;BME280;65653;53.106;18.046;2023-03-01T11:39:32;101919.92;;;23.06;24.80
76730;BME280;65653;53.106;18.046;2023-03-01T11:42:11;101916.64;;;23.48;24.43
76730;BME280;65653;53.106;18.046;2023-03-01T11:44:41;101912.16;;;23.30;24.32
76730;BME280;65653;53.106;18.046;2023-03-01T11:55:43;101905.21;;;23.04;23.60
76730;BME280;65653;53.106;18.046;2023-03-01T12:01:49;101907.85;;;22.55;24.07
76730;BME280;65653;53.106;18.046;2023-03-01T12:04:48;101911.85;;;22.95;23.89
76730;BME280;65653;53.106;18.046;2023-03-01T12:09:49;101916.15;;;21.58;24.99
76730;BME280;65653;53.106;18.046;2023-03-01T12:17:51;101915.04;;;22.40;24.42
76730;BME280;65653;53.106;18.046;2023-03-01T12:20:30;101916.13;;;22.78;23.85
76730;BME280;65653;53.106;18.046;2023-03-01T12:23:22;101914.86;;;22.96;23.54
76730;BME280;65653;53.106;18.046;2023-03-01T12:29:13;101914.48;;;23.09;23.27
76730;BME280;65653;53.106;18.046;2023-03-01T12:40:01;101908.13;;;23.66;23.58
76730;BME280;65653;53.106;18.046;2023-03-01T12:42:54;101906.11;;;23.32;24.02
76730;BME280;65653;53.106;18.046;2023-03-01T12:45:44;101900.95;;;23.28;23.77
76730;BME280;65653;53.106;18.046;2023-03-01T12:51:20;101895.27;;;23.87;23.29
76730;BME280;65653;53.106;18.046;2023-03-01T12:53:51;101887.74;;;23.38;23.69
76730;BME280;65653;53.106;18.046;2023-03-01T12:56:24;101888.13;;;22.60;24.69
76730;BME280;65653;53.106;18.046;2023-03-01T13:01:45;101885.88;;;23.42;23.99
76730;BME280;65653;53.106;18.046;2023-03-01T13:07:29;101883.95;;;23.51;24.02
76730;BME280;65653;53.106;18.046;2023-03-01T13:10:19;101880.05;;;23.61;24.02
76730;BME280;65653;53.106;18.046;2023-03-01T13:31:04;101871.52;;;23.42;23.89
76730;BME280;65653;53.106;18.046;2023-03-01T13:36:01;101872.59;;;23.70;23.64
76730;BME280;65653;53.106;18.046;2023-03-01T13:41:04;101864.11;;;23.91;23.21
76730;BME280;65653;53.106;18.046;2023-03-01T13:43:44;101865.45;;;23.40;23.67
76730;BME280;65653;53.106;18.046;2023-03-01T13:46:17;101863.39;;;23.69;23.90
76730;BME280;65653;53.106;18.046;2023-03-01T13:48:53;101864.16;;;23.86;23.30
76730;BME280;65653;53.106;18.046;2023-03-01T13:51:27;101858.77;;;23.65;23.53
76730;BME280;65653;53.106;18.046;2023-03-01T13:53:55;101855.73;;;23.34;23.60
76730;BME280;65653;53.106;18.046;2023-03-01T13:56:36;101855.27;;;23.22;23.85
76730;BME280;65653;53.106;18.046;2023-03-01T13:59:14;101849.50;;;23.48;23.73
76730;BME280;65653;53.106;18.046;2023-03-01T14:01:41;101849.85;;;23.62;23.67
76730;BME280;65653;53.106;18.046;2023-03-01T14:06:48;101841.36;;;24.18;23.21
76730;BME280;65653;53.106;18.046;2023-03-01T14:09:19;101841.42;;;24.00;23.38
76730;BME280;65653;53.106;18.046;2023-03-01T14:14:53;101845.41;;;23.48;23.68
76730;BME280;65653;53.106;18.046;2023-03-01T14:22:46;101831.17;;;22.98;24.17
76730;BME280;65653;53.106;18.046;2023-03-01T14:25:32;101829.39;;;22.77;24.59
76730;BME280;65653;53.106;18.046;2023-03-01T14:28:12;101827.15;;;22.54;24.60
76730;BME280;65653;53.106;18.046;2023-03-01T14:30:43;101823.08;;;22.33;24.86
76730;BME280;65653;53.106;18.046;2023-03-01T14:36:05;101816.79;;;21.86;25.40